Time;durP1;ratioP1;P1;durP2;ratioP2;P2;SDS_P1;SDS_P2;PMS_P1;PMS_P2;Temp;Humidity;BMP_temperature;BMP_pressure;BME280_temperature;BME280_humidity;BME280_pressure;Samples;Min_cycle;Max_cycle;Signal;HPM_P1;HPM_P2
2023/01/08 00:00:28;;;;;;;3.60;3.40;;;8.30;99.90;;;;;;5227890;28;20203;-52
2023/01/08 00:02:58;;;;;;;4.63;4.10;;;8.10;99.90;;;;;;5235196;28;20564;-51
2023/01/08 00:05:29;;;;;;;5.20;4.13;;;8.10;99.90;;;;;;5228888;28;20193;-52
2023/01/08 00:07:59;;;;;;;4.10;3.67;;;8.10;99.90;;;;;;5237398;28;20209;-52
2023/01/08 00:10:30;;;;;;;4.30;4.00;;;8.00;99.90;;;;;;5232676;28;20185;-51
2023/01/08 00:13:01;;;;;;;8.23;4.23;;;7.90;99.90;;;;;;5250971;28;20220;-51
2023/01/08 00:15:33;;;;;;;4.10;3.80;;;7.90;99.90;;;;;;5231259;28;20529;-50
2023/01/08 00:18:04;;;;;;;4.13;3.87;;;7.90;99.90;;;;;;5246800;28;20261;-52
2023/01/08 00:20:34;;;;;;;8.63;4.30;;;7.90;99.90;;;;;;5242807;28;20464;-52
2023/01/08 00:23:05;;;;;;;4.47;3.73;;;8.00;99.90;;;;;;5242670;28;20186;-52
2023/01/08 00:25:36;;;;;;;6.17;4.83;;;8.10;99.90;;;;;;5246010;28;20195;-51
2023/01/08 00:28:06;;;;;;;4.10;3.80;;;8.00;99.90;;;;;;5236080;28;20267;-51
2023/01/08 00:30:37;;;;;;;4.33;4.03;;;8.10;99.90;;;;;;5227798;28;20187;-52
2023/01/08 00:33:09;;;;;;;4.67;3.87;;;8.00;99.90;;;;;;5241929;28;20587;-52
2023/01/08 00:35:40;;;;;;;3.70;3.50;;;7.90;99.90;;;;;;5239628;28;20192;-52
2023/01/08 00:38:11;;;;;;;3.30;3.00;;;7.90;99.90;;;;;;5216790;28;20472;-52
2023/01/08 00:40:42;;;;;;;6.13;4.27;;;7.80;99.90;;;;;;5225956;28;20508;-51
2023/01/08 00:43:12;;;;;;;4.53;4.00;;;7.80;99.90;;;;;;5239736;28;20446;-51
2023/01/08 00:45:43;;;;;;;6.70;4.20;;;7.80;99.90;;;;;;5236534;28;20208;-51
2023/01/08 00:48:14;;;;;;;4.00;3.60;;;7.70;99.90;;;;;;5231197;28;20252;-52
2023/01/08 00:50:44;;;;;;;6.40;4.60;;;7.70;99.90;;;;;;5228004;28;20224;-50
2023/01/08 00:53:15;;;;;;;3.70;3.47;;;7.60;99.90;;;;;;5242018;28;20191;-52
2023/01/08 00:55:46;;;;;;;4.73;4.30;;;7.60;99.90;;;;;;5239642;28;20183;-52
2023/01/08 00:58:17;;;;;;;7.30;4.10;;;7.60;99.90;;;;;;5240482;28;20249;-51
2023/01/08 01:00:47;;;;;;;8.10;4.60;;;7.50;99.90;;;;;;5245278;28;20891;-51
2023/01/08 01:03:18;;;;;;;4.63;4.20;;;7.50;99.90;;;;;;5229115;28;20186;-51
2023/01/08 01:05:49;;;;;;;8.40;6.70;;;7.60;99.90;;;;;;5239651;28;20187;-51
2023/01/08 01:08:19;;;;;;;5.30;4.80;;;7.50;99.90;;;;;;5227427;28;20206;-51
2023/01/08 01:10:50;;;;;;;4.77;4.30;;;7.50;99.90;;;;;;5244628;28;20187;-52
2023/01/08 01:13:20;;;;;;;3.70;3.40;;;7.30;99.90;;;;;;5224434;28;20186;-50
2023/01/08 01:15:58;;;;;;;4.53;4.10;;;7.30;99.90;;;;;;5247209;28;20186;-52
2023/01/08 01:18:30;;;;;;;11.60;7.80;;;7.20;99.90;;;;;;5238021;28;20642;-52
2023/01/08 01:21:01;;;;;;;4.30;3.90;;;7.20;99.90;;;;;;5225071;28;20440;-50
2023/01/08 01:23:31;;;;;;;4.70;4.23;;;7.10;99.90;;;;;;5227320;28;20437;-52
2023/01/08 01:26:02;;;;;;;6.60;4.43;;;7.20;99.90;;;;;;5229644;28;20191;-51
2023/01/08 01:28:32;;;;;;;4.87;4.47;;;7.20;99.90;;;;;;5251959;28;20269;-50
2023/01/08 01:31:05;;;;;;;5.57;4.63;;;7.20;99.90;;;;;;5246558;28;20193;-51
2023/01/08 01:33:36;;;;;;;4.90;4.27;;;7.10;99.90;;;;;;5236826;28;20186;-51
2023/01/08 01:36:08;;;;;;;4.10;3.80;;;7.00;99.90;;;;;;5219879;28;20475;-52
2023/01/08 01:38:44;;;;;;;4.40;4.00;;;6.90;99.90;;;;;;5243207;28;20202;-51
2023/01/08 01:41:23;;;;;;;4.57;3.80;;;6.90;99.90;;;;;;5214209;28;20486;-51
2023/01/08 01:43:59;;;;;;;6.67;4.70;;;6.90;99.90;;;;;;5227197;28;20806;-52
2023/01/08 01:46:38;;;;;;;6.27;4.60;;;6.90;99.90;;;;;;5229531;28;20422;-53
2023/01/08 01:49:13;;;;;;;7.77;5.10;;;6.90;99.90;;;;;;5230086;28;20452;-52
2023/01/08 01:51:52;;;;;;;4.73;4.20;;;6.90;99.90;;;;;;5230564;28;20869;-52
2023/01/08 01:54:23;;;;;;;7.73;4.67;;;6.90;99.90;;;;;;5226617;28;20522;-52
2023/01/08 01:56:55;;;;;;;5.70;4.30;;;6.80;99.90;;;;;;5238096;28;20449;-52
2023/01/08 01:59:26;;;;;;;4.97;4.43;;;6.90;99.90;;;;;;5216544;28;20824;-52
2023/01/08 02:01:57;;;;;;;5.83;4.77;;;6.80;99.90;;;;;;5245019;28;20913;-51
2023/01/08 02:04:28;;;;;;;5.50;4.43;;;6.80;99.90;;;;;;5244014;28;20466;-52
2023/01/08 02:07:12;;;;;;;7.03;4.60;;;6.80;99.90;;;;;;5246638;28;20437;-52
2023/01/08 02:09:52;;;;;;;12.60;5.87;;;6.70;99.90;;;;;;5246229;28;20213;-50
2023/01/08 02:12:31;;;;;;;5.17;4.67;;;6.70;99.90;;;;;;5242731;28;20944;-52
2023/01/08 02:15:43;;;;;;;4.43;4.20;;;6.60;99.90;;;;;;5222749;28;20443;-52
2023/01/08 02:18:16;;;;;;;5.20;4.70;;;6.60;99.90;;;;;;5227207;28;20476;-53
2023/01/08 02:20:54;;;;;;;7.50;5.23;;;6.50;99.90;;;;;;5231156;28;20547;-51
2023/01/08 02:23:32;;;;;;;6.73;5.10;;;6.70;99.90;;;;;;5228378;28;20526;-52
2023/01/08 02:26:17;;;;;;;5.37;4.90;;;6.60;99.90;;;;;;5245376;28;20472;-52
2023/01/08 02:29:07;;;;;;;6.03;5.43;;;6.50;99.90;;;;;;5249453;28;20498;-51
2023/01/08 02:31:40;;;;;;;5.87;5.33;;;6.40;99.90;;;;;;5219051;28;20452;-50
2023/01/08 02:34:11;;;;;;;5.33;4.90;;;6.40;99.90;;;;;;5245852;28;20810;-51
2023/01/08 02:36:55;;;;;;;6.30;5.70;;;6.30;99.90;;;;;;5241334;28;20967;-53
2023/01/08 02:39:32;;;;;;;9.97;6.07;;;6.40;99.90;;;;;;5223975;28;20482;-52
2023/01/08 02:42:24;;;;;;;5.93;5.33;;;6.50;99.90;;;;;;5243825;28;20519;-52
2023/01/08 02:45:13;;;;;;;5.43;5.03;;;6.30;99.90;;;;;;5243649;28;20913;-51
2023/01/08 02:48:32;;;;;;;5.40;5.00;;;6.20;99.90;;;;;;5237361;28;20457;-51
2023/01/08 02:51:08;;;;;;;5.57;5.03;;;6.20;99.90;;;;;;5223295;28;20448;-52
2023/01/08 02:53:45;;;;;;;5.67;5.03;;;6.20;99.90;;;;;;5232945;28;20796;-52
2023/01/08 02:56:39;;;;;;;6.10;5.40;;;6.10;99.90;;;;;;5242361;28;20607;-51
2023/01/08 02:59:12;;;;;;;5.80;5.40;;;6.20;99.90;;;;;;5248610;28;20491;-52
2023/01/08 03:01:44;;;;;;;5.90;5.13;;;6.10;99.90;;;;;;5240400;28;20431;-51
2023/01/08 03:04:21;;;;;;;8.10;6.20;;;6.10;99.90;;;;;;5248720;28;20917;-52
2023/01/08 03:06:51;;;;;;;6.80;6.20;;;6.10;99.90;;;;;;5227768;28;20433;-52
2023/01/08 03:09:22;;;;;;;6.53;5.90;;;6.10;99.90;;;;;;5225292;28;20467;-52
2023/01/08 03:12:02;;;;;;;6.70;6.07;;;6.00;99.90;;;;;;5239476;28;20659;-51
2023/01/08 03:14:58;;;;;;;7.67;5.53;;;6.00;99.90;;;;;;5239843;28;20437;-51
2023/01/08 03:17:38;;;;;;;7.03;6.00;;;6.00;99.90;;;;;;5228417;28;20622;-52
2023/01/08 03:20:13;;;;;;;6.13;5.53;;;5.90;99.90;;;;;;5227354;28;20483;-51
2023/01/08 03:22:47;;;;;;;7.50;5.93;;;5.90;99.90;;;;;;5237990;28;20783;-51
2023/01/08 03:25:21;;;;;;;8.37;5.87;;;5.90;99.90;;;;;;5246927;28;20464;-52
2023/01/08 03:27:56;;;;;;;6.50;5.90;;;5.90;99.90;;;;;;5244039;28;20452;-52
2023/01/08 03:30:29;;;;;;;6.87;6.30;;;5.90;99.90;;;;;;5239223;28;20467;-51
2023/01/08 03:33:01;;;;;;;7.30;6.60;;;5.90;99.90;;;;;;5241841;28;20813;-49
2023/01/08 03:35:32;;;;;;;6.70;6.20;;;5.90;99.90;;;;;;5241664;28;20810;-51
2023/01/08 03:38:14;;;;;;;6.43;5.60;;;5.90;99.90;;;;;;5238776;28;20845;-50
2023/01/08 03:40:49;;;;;;;7.50;6.40;;;5.90;99.90;;;;;;5229320;28;20432;-50
2023/01/08 03:43:20;;;;;;;7.30;6.20;;;5.90;99.90;;;;;;5238171;28;20794;-50
2023/01/08 03:45:57;;;;;;;12.73;7.13;;;6.00;99.90;;;;;;5212526;28;20429;-50
2023/01/08 03:48:30;;;;;;;7.27;6.47;;;5.80;99.90;;;;;;5210929;28;20202;-49
2023/01/08 03:51:01;;;;;;;6.73;5.80;;;5.90;99.90;;;;;;5217277;28;20516;-51
2023/01/08 03:53:31;;;;;;;7.73;6.30;;;5.90;99.90;;;;;;5244392;28;20526;-51
2023/01/08 03:56:02;;;;;;;7.50;6.43;;;5.80;99.90;;;;;;5244955;28;20193;-51
2023/01/08 03:58:33;;;;;;;6.27;5.77;;;5.80;99.90;;;;;;5227006;28;20209;-51
2023/01/08 04:01:04;;;;;;;7.37;5.50;;;5.80;99.90;;;;;;5239371;28;20432;-51
2023/01/08 04:03:34;;;;;;;7.23;6.50;;;5.80;99.90;;;;;;5210264;28;20181;-51
2023/01/08 04:06:05;;;;;;;7.10;6.40;;;5.80;99.90;;;;;;5238969;28;20215;-51
2023/01/08 04:08:36;;;;;;;6.80;6.00;;;5.70;99.90;;;;;;5247694;28;20282;-50
2023/01/08 04:11:06;;;;;;;6.97;6.40;;;5.70;99.90;;;;;;5234272;28;20202;-50
2023/01/08 04:13:37;;;;;;;7.57;6.87;;;5.70;99.90;;;;;;5229582;28;20182;-50
2023/01/08 04:16:08;;;;;;;6.73;6.03;;;5.70;99.90;;;;;;5239047;28;20194;-50
2023/01/08 04:18:38;;;;;;;7.10;6.47;;;5.70;99.90;;;;;;5230036;28;20225;-50
2023/01/08 04:21:09;;;;;;;6.97;6.47;;;5.60;99.90;;;;;;5237182;28;20186;-51
2023/01/08 04:23:40;;;;;;;6.83;6.20;;;5.60;99.90;;;;;;5247935;28;20186;-51
2023/01/08 04:26:10;;;;;;;6.80;6.27;;;5.60;99.90;;;;;;5230589;28;20175;-50
2023/01/08 04:28:41;;;;;;;7.33;6.73;;;5.70;99.90;;;;;;5225370;28;20211;-51
2023/01/08 04:31:11;;;;;;;8.43;6.17;;;5.60;99.90;;;;;;5238349;28;20186;-50
2023/01/08 04:33:42;;;;;;;7.00;6.30;;;5.60;99.90;;;;;;5249509;28;20204;-50
2023/01/08 04:36:13;;;;;;;8.77;7.37;;;5.70;99.90;;;;;;5247659;28;20193;-50
2023/01/08 04:38:43;;;;;;;11.40;7.37;;;5.60;99.90;;;;;;5230085;28;20202;-51
2023/01/08 04:41:17;;;;;;;11.27;7.80;;;5.70;99.90;;;;;;5247750;28;20643;-50
2023/01/08 04:43:47;;;;;;;12.00;7.70;;;5.60;99.90;;;;;;5239431;28;20178;-49
2023/01/08 04:46:18;;;;;;;20.90;8.00;;;5.60;99.90;;;;;;5232499;28;20429;-51
2023/01/08 04:48:49;;;;;;;7.23;6.53;;;5.50;99.90;;;;;;5244702;28;20614;-50
2023/01/08 04:51:20;;;;;;;7.53;6.50;;;5.50;99.90;;;;;;5247060;28;20190;-51
2023/01/08 04:53:51;;;;;;;7.17;6.13;;;5.50;99.90;;;;;;5249990;28;20189;-50
2023/01/08 04:56:22;;;;;;;7.17;6.30;;;5.60;99.90;;;;;;5230352;28;20431;-50
2023/01/08 04:58:53;;;;;;;10.13;8.07;;;5.60;99.90;;;;;;5246535;28;20214;-49
2023/01/08 05:01:26;;;;;;;8.10;7.30;;;5.60;99.90;;;;;;5242931;28;20175;-49
2023/01/08 05:04:00;;;;;;;8.30;7.47;;;5.60;99.90;;;;;;5236709;28;20177;-50
2023/01/08 05:06:31;;;;;;;18.53;8.70;;;5.60;99.90;;;;;;5250276;28;20518;-50
2023/01/08 05:09:02;;;;;;;11.23;7.07;;;5.90;99.90;;;;;;5231041;28;20464;-51
2023/01/08 05:11:34;;;;;;;13.03;7.03;;;5.90;99.90;;;;;;5245221;28;20788;-50
2023/01/08 05:14:05;;;;;;;8.13;6.57;;;5.80;99.90;;;;;;5239622;28;20814;-49
2023/01/08 05:16:35;;;;;;;8.30;7.50;;;5.90;99.90;;;;;;5247797;28;20408;-50
2023/01/08 05:19:06;;;;;;;15.03;10.03;;;5.90;99.90;;;;;;5249490;28;20303;-50
2023/01/08 05:21:36;;;;;;;15.10;10.40;;;6.10;99.90;;;;;;5228560;28;20273;-49
2023/01/08 05:24:08;;;;;;;10.67;9.20;;;6.10;99.90;;;;;;5226546;28;20269;-50
2023/01/08 05:26:39;;;;;;;8.60;7.07;;;6.20;99.90;;;;;;5239662;28;20764;-50
2023/01/08 05:29:09;;;;;;;11.63;9.17;;;6.10;99.90;;;;;;5232357;28;20582;-50
2023/01/08 05:31:40;;;;;;;14.30;7.27;;;6.10;99.90;;;;;;5206112;28;20669;-49
2023/01/08 05:34:11;;;;;;;13.13;9.33;;;6.10;99.90;;;;;;5241020;28;20239;-51
2023/01/08 05:36:42;;;;;;;7.80;7.07;;;6.10;99.90;;;;;;5247977;28;20189;-51
2023/01/08 05:39:12;;;;;;;8.40;7.50;;;6.00;99.90;;;;;;5229130;28;20213;-51
2023/01/08 05:41:43;;;;;;;7.40;5.40;;;6.00;99.90;;;;;;5226929;28;20436;-50
2023/01/08 05:44:13;;;;;;;13.00;8.47;;;6.10;99.90;;;;;;5229697;28;20190;-51
2023/01/08 05:46:44;;;;;;;7.73;6.70;;;6.20;99.90;;;;;;5242623;28;20189;-50
2023/01/08 05:49:15;;;;;;;7.87;6.80;;;6.20;99.90;;;;;;5228112;28;20226;-50
2023/01/08 05:51:45;;;;;;;13.10;6.53;;;6.20;99.90;;;;;;5261001;28;20715;-50
2023/01/08 05:54:16;;;;;;;9.03;7.80;;;6.30;99.90;;;;;;5228546;28;20182;-50
2023/01/08 05:56:47;;;;;;;8.43;6.80;;;6.60;99.90;;;;;;5232654;28;20237;-49
2023/01/08 05:59:17;;;;;;;7.80;6.97;;;6.50;99.90;;;;;;5243578;28;20215;-51
2023/01/08 06:01:48;;;;;;;11.67;7.20;;;6.70;99.90;;;;;;5230892;28;20217;-51
2023/01/08 06:04:18;;;;;;;6.37;5.80;;;6.70;99.90;;;;;;5238807;28;20193;-49
2023/01/08 06:06:49;;;;;;;6.23;5.63;;;6.70;99.90;;;;;;5201702;28;20186;-50
2023/01/08 06:09:20;;;;;;;7.03;6.03;;;6.80;99.90;;;;;;5231317;28;20740;-50
2023/01/08 06:11:51;;;;;;;7.30;5.27;;;6.80;99.90;;;;;;5235049;28;20212;-50
2023/01/08 06:14:22;;;;;;;5.50;4.40;;;6.70;99.90;;;;;;5227975;28;20186;-50
2023/01/08 06:16:53;;;;;;;7.80;5.93;;;6.90;99.90;;;;;;5246781;28;20505;-50
2023/01/08 06:19:24;;;;;;;6.37;5.77;;;6.90;99.90;;;;;;5236707;28;20574;-50
2023/01/08 06:21:55;;;;;;;6.73;6.10;;;7.00;99.90;;;;;;5228342;28;20181;-51
2023/01/08 06:24:26;;;;;;;7.57;5.40;;;6.90;99.90;;;;;;5229368;28;20181;-50
2023/01/08 06:26:56;;;;;;;5.20;4.70;;;7.00;99.90;;;;;;5244817;28;20809;-52
2023/01/08 06:29:27;;;;;;;6.40;5.87;;;7.20;99.90;;;;;;5236303;28;20614;-51
2023/01/08 06:31:58;;;;;;;5.73;5.23;;;7.10;99.90;;;;;;5225914;28;20627;-51
2023/01/08 06:34:28;;;;;;;6.90;5.10;;;7.20;99.90;;;;;;5239291;28;20229;-51
2023/01/08 06:36:59;;;;;;;6.43;5.47;;;7.20;99.90;;;;;;5215075;28;20556;-53
2023/01/08 06:39:30;;;;;;;6.00;4.77;;;7.10;99.90;;;;;;5210874;28;20238;-52
2023/01/08 06:42:00;;;;;;;5.13;4.63;;;7.10;99.90;;;;;;5241952;28;20174;-52
2023/01/08 06:44:31;;;;;;;6.10;5.50;;;7.20;99.90;;;;;;5239050;28;20265;-52
2023/01/08 06:47:02;;;;;;;6.07;5.27;;;7.10;99.90;;;;;;5242496;28;20186;-51
2023/01/08 06:49:32;;;;;;;9.93;4.63;;;7.20;99.90;;;;;;5240617;28;20598;-50
2023/01/08 06:52:03;;;;;;;8.10;5.60;;;7.10;99.90;;;;;;5228814;28;20276;-50
2023/01/08 06:54:34;;;;;;;5.50;5.00;;;7.10;99.90;;;;;;5239953;28;20193;-51
2023/01/08 06:57:04;;;;;;;5.33;4.83;;;7.30;99.90;;;;;;5243327;28;20182;-50
2023/01/08 06:59:35;;;;;;;6.07;5.47;;;7.30;99.90;;;;;;5245243;28;20690;-50
2023/01/08 07:02:09;;;;;;;5.97;5.37;;;7.30;99.90;;;;;;5231919;28;20536;-50
2023/01/08 07:04:39;;;;;;;5.30;4.57;;;7.20;99.90;;;;;;5245868;28;20289;-52
2023/01/08 07:07:14;;;;;;;6.63;5.23;;;7.20;99.90;;;;;;5223664;28;20523;-53
2023/01/08 07:09:45;;;;;;;7.40;5.20;;;7.30;99.90;;;;;;5243251;28;20313;-51
2023/01/08 07:12:15;;;;;;;5.60;5.10;;;7.40;99.90;;;;;;5231382;28;20515;-52
2023/01/08 07:14:46;;;;;;;6.97;5.13;;;7.30;99.90;;;;;;5245147;28;20190;-51
2023/01/08 07:17:16;;;;;;;5.13;4.73;;;7.30;99.90;;;;;;5232375;28;20190;-51
2023/01/08 07:19:47;;;;;;;4.47;4.07;;;7.40;99.90;;;;;;5213030;28;20295;-52
2023/01/08 07:22:19;;;;;;;5.40;4.70;;;7.30;99.90;;;;;;5236778;28;20187;-50
2023/01/08 07:24:49;;;;;;;4.63;4.33;;;7.30;99.90;;;;;;5238363;28;20643;-52
2023/01/08 07:27:20;;;;;;;6.57;4.83;;;7.30;99.90;;;;;;5229324;28;20435;-52
2023/01/08 07:29:51;;;;;;;4.87;4.47;;;7.40;99.90;;;;;;5227235;28;20217;-51
2023/01/08 07:32:21;;;;;;;6.37;5.40;;;7.70;99.90;;;;;;5236423;28;20263;-51
2023/01/08 07:34:53;;;;;;;5.73;5.03;;;7.60;99.90;;;;;;5247773;28;20589;-52
2023/01/08 07:37:25;;;;;;;6.07;5.47;;;7.60;99.90;;;;;;5222435;28;20186;-51
2023/01/08 07:39:55;;;;;;;6.37;5.63;;;7.70;99.90;;;;;;5228185;28;21050;-51
2023/01/08 07:42:26;;;;;;;6.63;5.73;;;7.70;99.90;;;;;;5213623;28;20516;-50
2023/01/08 07:44:57;;;;;;;8.30;4.87;;;7.60;99.90;;;;;;5226802;28;20547;-49
2023/01/08 07:47:27;;;;;;;6.53;5.63;;;7.50;99.90;;;;;;5228881;28;20270;-51
2023/01/08 07:49:58;;;;;;;5.30;4.80;;;7.40;99.90;;;;;;5247059;28;20256;-52
2023/01/08 07:52:28;;;;;;;5.17;4.77;;;7.30;99.90;;;;;;5243288;28;20213;-50
2023/01/08 07:54:59;;;;;;;5.80;3.97;;;7.30;99.90;;;;;;5242140;28;20190;-52
2023/01/08 07:57:30;;;;;;;5.00;4.73;;;7.20;99.90;;;;;;5223279;28;20274;-52
2023/01/08 08:00:00;;;;;;;11.00;5.37;;;7.20;99.90;;;;;;5242976;28;20733;-53
2023/01/08 08:02:32;;;;;;;5.13;4.63;;;7.50;99.90;;;;;;5250616;28;20224;-51
2023/01/08 08:05:03;;;;;;;5.67;5.20;;;7.40;99.90;;;;;;5249985;28;20177;-52
2023/01/08 08:07:34;;;;;;;6.13;5.00;;;7.40;99.90;;;;;;5244436;28;20437;-52
2023/01/08 08:10:05;;;;;;;7.77;5.20;;;7.40;99.90;;;;;;5247070;28;20194;-51
2023/01/08 08:12:36;;;;;;;5.13;4.73;;;7.40;99.90;;;;;;5227289;28;20430;-51
2023/01/08 08:15:08;;;;;;;5.10;4.70;;;7.40;99.90;;;;;;5241517;28;20432;-53
2023/01/08 08:17:38;;;;;;;5.07;4.67;;;7.30;99.90;;;;;;5232332;28;20186;-52
2023/01/08 08:20:09;;;;;;;7.47;5.53;;;7.50;99.90;;;;;;5241933;28;20464;-52
2023/01/08 08:22:40;;;;;;;11.10;5.10;;;7.50;99.90;;;;;;5248676;28;20559;-53
2023/01/08 08:25:13;;;;;;;5.37;4.83;;;7.40;99.90;;;;;;5235826;28;20436;-51
2023/01/08 08:27:44;;;;;;;7.07;5.83;;;7.30;99.90;;;;;;5230313;28;20651;-51
2023/01/08 08:30:15;;;;;;;9.43;8.30;;;7.30;99.90;;;;;;5246394;28;20441;-52
2023/01/08 08:32:45;;;;;;;4.83;4.43;;;7.30;99.90;;;;;;5243056;28;20552;-52
2023/01/08 08:35:16;;;;;;;10.10;6.97;;;7.30;99.90;;;;;;5245873;28;20218;-51
2023/01/08 08:37:47;;;;;;;6.40;5.43;;;7.30;99.90;;;;;;5233133;28;20202;-53
2023/01/08 08:40:17;;;;;;;6.73;5.10;;;7.40;99.90;;;;;;5249817;28;20308;-51
2023/01/08 08:42:48;;;;;;;8.50;5.50;;;7.40;99.90;;;;;;5228607;28;20235;-52
2023/01/08 08:45:19;;;;;;;5.43;4.80;;;7.40;99.90;;;;;;5231979;28;20678;-52
2023/01/08 08:47:49;;;;;;;6.00;5.50;;;7.50;99.90;;;;;;5248175;28;20214;-52
2023/01/08 08:50:20;;;;;;;9.33;6.37;;;7.40;99.90;;;;;;5242649;28;20179;-52
2023/01/08 08:52:51;;;;;;;9.90;6.07;;;7.50;99.90;;;;;;5243892;28;20189;-52
2023/01/08 08:55:22;;;;;;;5.50;5.07;;;7.50;99.90;;;;;;5232336;28;20432;-52
2023/01/08 08:57:53;;;;;;;5.90;5.40;;;7.50;99.90;;;;;;5219489;28;20251;-50
2023/01/08 09:00:23;;;;;;;5.17;4.70;;;7.60;99.90;;;;;;5219745;28;20211;-52
2023/01/08 09:02:54;;;;;;;5.10;4.70;;;7.80;99.90;;;;;;5243282;28;20185;-51
2023/01/08 09:05:25;;;;;;;5.07;4.57;;;7.80;99.90;;;;;;5240984;28;20178;-52
2023/01/08 09:07:56;;;;;;;4.93;4.47;;;7.70;99.90;;;;;;5232588;28;20198;-52
2023/01/08 09:10:26;;;;;;;4.70;4.40;;;7.70;99.90;;;;;;5227976;28;20205;-53
2023/01/08 09:12:57;;;;;;;5.97;5.30;;;7.70;99.90;;;;;;5238097;28;20872;-53
2023/01/08 09:15:28;;;;;;;5.30;4.90;;;7.70;99.90;;;;;;5226341;28;20189;-51
2023/01/08 09:17:58;;;;;;;17.23;4.83;;;7.70;99.90;;;;;;5195599;28;20298;-52
2023/01/08 09:20:29;;;;;;;4.97;4.60;;;7.70;99.90;;;;;;5242781;28;20228;-52
2023/01/08 09:23:02;;;;;;;5.50;5.03;;;7.90;99.90;;;;;;5224273;28;20182;-51
2023/01/08 09:25:32;;;;;;;5.87;5.30;;;7.90;99.90;;;;;;5243845;28;20429;-50
2023/01/08 09:28:10;;;;;;;6.33;4.90;;;8.00;99.90;;;;;;5241854;28;20960;-52
2023/01/08 09:30:41;;;;;;;5.27;4.83;;;8.30;99.90;;;;;;5228101;28;20175;-52
2023/01/08 09:33:12;;;;;;;7.57;5.17;;;8.30;99.90;;;;;;5238050;28;20437;-51
2023/01/08 09:35:43;;;;;;;5.13;4.73;;;8.30;99.90;;;;;;5242891;28;20171;-50
2023/01/08 09:38:14;;;;;;;6.10;5.20;;;8.30;99.90;;;;;;5233681;28;20211;-50
2023/01/08 09:40:59;;;;;;;6.13;5.53;;;8.40;99.90;;;;;;5247941;28;20791;-51
2023/01/08 09:43:33;;;;;;;5.57;4.67;;;8.50;99.90;;;;;;5230852;28;20223;-52
2023/01/08 09:46:06;;;;;;;4.37;3.90;;;8.30;99.90;;;;;;5239633;28;20459;-51
2023/01/08 09:48:38;;;;;;;5.70;4.43;;;8.10;99.90;;;;;;5233816;28;20441;-51
2023/01/08 09:51:14;;;;;;;4.60;4.20;;;8.10;99.90;;;;;;5243661;28;20820;-50
2023/01/08 09:53:54;;;;;;;5.70;4.73;;;8.00;99.90;;;;;;5251247;28;20906;-51
2023/01/08 09:56:25;;;;;;;4.87;4.47;;;7.90;99.90;;;;;;5249277;28;20512;-51
2023/01/08 09:58:59;;;;;;;4.87;4.23;;;7.90;99.90;;;;;;5232176;28;20739;-50
2023/01/08 10:01:35;;;;;;;4.67;4.37;;;8.20;99.90;;;;;;5229928;28;20428;-51
2023/01/08 10:04:14;;;;;;;6.57;4.53;;;8.10;99.90;;;;;;5230397;28;20439;-49
2023/01/08 10:06:56;;;;;;;5.13;4.80;;;8.00;99.90;;;;;;5227747;28;20435;-51
2023/01/08 10:09:32;;;;;;;5.10;4.60;;;8.10;99.90;;;;;;5227429;28;20456;-49
2023/01/08 10:12:04;;;;;;;8.13;4.33;;;8.00;99.90;;;;;;5247888;28;20420;-51
2023/01/08 10:14:38;;;;;;;4.77;4.37;;;8.00;99.90;;;;;;5227115;28;20425;-50
2023/01/08 10:17:36;;;;;;;4.87;4.47;;;7.90;99.90;;;;;;5232596;28;20436;-50
2023/01/08 10:20:18;;;;;;;4.83;4.43;;;7.80;99.90;;;;;;5230903;28;21064;-50
2023/01/08 10:22:53;;;;;;;4.40;4.10;;;7.70;99.90;;;;;;5243023;28;20436;-53
2023/01/08 10:25:26;;;;;;;5.90;5.00;;;7.80;99.90;;;;;;5231949;28;20432;-50
2023/01/08 10:28:00;;;;;;;9.40;5.87;;;7.70;99.90;;;;;;5212450;28;20445;-52
2023/01/08 10:30:30;;;;;;;6.00;4.73;;;7.70;99.90;;;;;;5231293;28;20429;-50
2023/01/08 10:33:09;;;;;;;5.43;5.00;;;7.60;99.90;;;;;;5247892;28;20419;-51
2023/01/08 10:35:41;;;;;;;6.03;4.77;;;7.60;99.90;;;;;;5215810;28;20194;-51
2023/01/08 10:38:36;;;;;;;5.50;5.00;;;7.60;99.90;;;;;;5244872;28;20448;-51
2023/01/08 10:41:13;;;;;;;7.60;5.73;;;7.70;99.90;;;;;;5233285;28;20467;-51
2023/01/08 10:43:53;;;;;;;10.50;7.10;;;7.70;99.90;;;;;;5231242;28;20448;-49
2023/01/08 10:46:30;;;;;;;10.10;6.57;;;7.70;99.90;;;;;;5224757;28;20455;-51
2023/01/08 10:49:04;;;;;;;11.53;8.10;;;7.80;99.90;;;;;;5227349;28;20523;-51
2023/01/08 10:51:34;;;;;;;10.73;7.37;;;7.80;99.90;;;;;;5220076;28;20846;-51
2023/01/08 10:54:31;;;;;;;16.63;8.40;;;7.80;99.90;;;;;;5228395;28;20425;-51
2023/01/08 10:57:02;;;;;;;13.20;7.40;;;7.90;99.90;;;;;;5230999;28;20250;-51
2023/01/08 10:59:35;;;;;;;7.37;4.73;;;7.90;99.90;;;;;;5230888;28;20499;-50
2023/01/08 11:02:26;;;;;;;9.07;6.67;;;7.90;99.90;;;;;;5236984;28;20436;-52
2023/01/08 11:04:58;;;;;;;25.17;13.10;;;8.00;99.90;;;;;;5212655;28;20519;-51
2023/01/08 11:07:30;;;;;;;17.40;10.73;;;8.00;99.90;;;;;;5244561;28;20467;-50
2023/01/08 11:10:03;;;;;;;6.47;4.97;;;8.00;99.90;;;;;;5242730;28;20444;-51
2023/01/08 11:12:39;;;;;;;7.20;6.50;;;7.90;99.90;;;;;;5246712;28;20838;-53
2023/01/08 11:15:33;;;;;;;7.10;6.40;;;7.80;99.90;;;;;;5226122;28;20487;-52
2023/01/08 11:18:12;;;;;;;8.13;6.60;;;7.80;99.90;;;;;;5242368;28;20484;-52
2023/01/08 11:20:44;;;;;;;12.40;7.90;;;7.90;99.90;;;;;;5240158;28;20460;-49
2023/01/08 11:23:25;;;;;;;7.10;5.90;;;7.90;99.90;;;;;;5240930;28;20440;-51
2023/01/08 11:26:04;;;;;;;7.70;5.93;;;8.00;99.90;;;;;;5229410;28;20443;-50
2023/01/08 11:28:51;;;;;;;11.93;7.97;;;8.10;99.90;;;;;;5226925;28;21022;-50
2023/01/08 11:31:40;;;;;;;9.23;7.17;;;8.20;99.90;;;;;;5242248;28;20478;-50
2023/01/08 11:34:20;;;;;;;6.47;5.93;;;8.20;99.90;;;;;;5222591;28;20465;-50
2023/01/08 11:37:03;;;;;;;10.40;6.70;;;8.20;99.90;;;;;;5229672;28;20478;-51
2023/01/08 11:39:36;;;;;;;6.47;5.70;;;8.20;99.90;;;;;;5246376;28;20992;-52
2023/01/08 11:42:25;;;;;;;8.00;5.90;;;8.20;99.90;;;;;;5243451;28;20474;-52
2023/01/08 11:45:04;;;;;;;7.00;6.30;;;8.10;99.90;;;;;;5250106;28;20978;-51
2023/01/08 11:47:53;;;;;;;6.07;5.33;;;8.40;99.90;;;;;;5250951;28;20420;-52
2023/01/08 11:50:27;;;;;;;8.40;6.10;;;8.40;99.90;;;;;;5225679;28;20429;-52
2023/01/08 11:53:25;;;;;;;7.47;6.77;;;8.30;99.90;;;;;;5230211;28;20443;-52
2023/01/08 11:56:12;;;;;;;7.33;6.57;;;8.20;99.90;;;;;;5223883;28;20467;-50
2023/01/08 11:59:15;;;;;;;16.33;8.43;;;8.20;99.90;;;;;;5246682;28;20461;-51
2023/01/08 12:02:18;;;;;;;23.77;14.30;;;8.20;99.90;;;;;;5243891;28;20454;-51
2023/01/08 12:05:20;;;;;;;17.17;10.73;;;8.40;99.90;;;;;;5249963;28;20485;-50
2023/01/08 12:08:09;;;;;;;31.57;17.00;;;8.50;99.90;;;;;;5240537;28;20451;-50
2023/01/08 12:10:39;;;;;;;13.30;9.70;;;8.50;99.90;;;;;;5216212;28;20472;-50
2023/01/08 12:13:22;;;;;;;17.97;8.83;;;8.50;99.90;;;;;;5231422;28;20480;-51
2023/01/08 12:16:32;;;;;;;18.40;10.93;;;8.60;99.90;;;;;;5252125;28;20268;-51
2023/01/08 12:19:09;;;;;;;18.00;11.40;;;8.80;99.90;;;;;;5246120;28;20474;-51
2023/01/08 12:22:01;;;;;;;17.60;12.20;;;8.80;99.90;;;;;;5235739;28;20523;-51
2023/01/08 12:24:50;;;;;;;8.77;7.03;;;8.80;99.90;;;;;;5227232;28;20433;-50
2023/01/08 12:27:33;;;;;;;8.33;6.80;;;9.00;99.90;;;;;;5251811;28;20443;-50
2023/01/08 12:30:50;;;;;;;10.60;7.20;;;9.00;99.90;;;;;;5252289;28;20500;-51
2023/01/08 12:33:38;;;;;;;11.77;9.13;;;9.20;99.90;;;;;;5221691;28;20789;-50
2023/01/08 12:36:17;;;;;;;7.00;6.40;;;9.10;99.90;;;;;;5247556;28;20903;-52
2023/01/08 12:38:57;;;;;;;5.63;5.13;;;9.10;99.90;;;;;;5239749;28;20463;-51
2023/01/08 12:41:30;;;;;;;7.20;6.10;;;9.30;99.90;;;;;;5251998;28;20455;-50
2023/01/08 12:44:04;;;;;;;6.10;5.60;;;9.40;99.90;;;;;;5256642;28;21162;-50
2023/01/08 12:46:42;;;;;;;7.50;5.40;;;9.30;99.90;;;;;;5255252;28;20866;-51
2023/01/08 12:49:28;;;;;;;5.93;5.30;;;9.30;99.90;;;;;;5251740;28;20955;-51
2023/01/08 12:52:10;;;;;;;7.03;5.70;;;9.20;99.90;;;;;;5257465;28;20431;-50
2023/01/08 12:54:44;;;;;;;7.20;5.80;;;9.00;99.90;;;;;;5253166;28;21104;-51
2023/01/08 12:57:50;;;;;;;5.63;5.20;;;9.00;99.90;;;;;;5255055;28;20966;-51
2023/01/08 13:00:37;;;;;;;6.67;5.30;;;9.00;99.90;;;;;;5250404;28;20598;-51
2023/01/08 13:03:17;;;;;;;5.90;5.30;;;9.10;99.90;;;;;;5255868;28;20770;-51
2023/01/08 13:05:48;;;;;;;8.27;5.13;;;9.00;99.90;;;;;;5243539;28;20790;-52
2023/01/08 13:08:36;;;;;;;7.70;5.67;;;9.20;99.90;;;;;;5236430;28;20448;-49
2023/01/08 13:11:07;;;;;;;9.00;5.83;;;9.10;99.90;;;;;;5234354;28;20485;-51
2023/01/08 13:13:44;;;;;;;6.80;5.30;;;9.00;99.90;;;;;;5219221;28;20435;-51
2023/01/08 13:16:19;;;;;;;8.60;5.10;;;9.00;99.90;;;;;;5252051;28;20435;-52
2023/01/08 13:18:58;;;;;;;6.73;6.10;;;9.00;99.90;;;;;;5253488;28;20479;-51
2023/01/08 13:21:34;;;;;;;6.70;6.00;;;9.00;99.90;;;;;;5221431;28;20421;-51
2023/01/08 13:24:27;;;;;;;8.03;5.23;;;8.90;99.90;;;;;;5235840;28;20978;-51
2023/01/08 13:27:16;;;;;;;6.97;5.40;;;8.80;99.90;;;;;;5254750;28;20427;-51
2023/01/08 13:29:49;;;;;;;8.00;6.03;;;8.90;99.90;;;;;;5256255;28;20464;-51
2023/01/08 13:32:25;;;;;;;7.27;5.80;;;8.70;99.90;;;;;;5254990;28;20444;-51
2023/01/08 13:35:24;;;;;;;6.00;5.40;;;8.60;99.90;;;;;;5227694;28;21007;-51